Time;durP1;ratioP1;P1;durP2;ratioP2;P2;SDS_P1;SDS_P2;PMS_P1;PMS_P2;Temp;Humidity;BMP_temperature;BMP_pressure;BME280_temperature;BME280_humidity;BME280_pressure;Samples;Min_cycle;Max_cycle;Signal;HPM_P1;HPM_P2
2022/11/23 00:01:21;;;;;;;85.80;36.67;;;0.80;99.90;;;;;;10016295;29;20205;-88
2022/11/23 00:06:43;;;;;;;91.83;37.00;;;0.80;99.90;;;;;;10042128;29;20293;-85
2022/11/23 00:12:04;;;;;;;82.50;35.10;;;0.80;99.90;;;;;;10033414;29;20206;-79
2022/11/23 00:17:25;;;;;;;86.43;35.63;;;0.80;99.90;;;;;;10087443;29;20238;-81
2022/11/23 00:22:46;;;;;;;87.13;35.03;;;0.80;99.90;;;;;;10061559;29;20202;-87
2022/11/23 00:28:07;;;;;;;82.33;34.00;;;0.70;99.90;;;;;;10056096;29;20304;-84
2022/11/23 00:33:29;;;;;;;74.50;31.73;;;0.70;99.90;;;;;;10095085;29;20227;-82
2022/11/23 00:38:53;;;;;;;82.27;35.33;;;0.80;99.90;;;;;;10075384;29;20214;-84
2022/11/23 00:44:14;;;;;;;85.20;35.70;;;0.80;99.90;;;;;;10015469;29;20210;-87
2022/11/23 00:49:35;;;;;;;85.10;34.87;;;0.70;99.90;;;;;;10027696;29;20424;-87
2022/11/23 00:54:56;;;;;;;86.37;34.93;;;0.70;99.90;;;;;;10041642;29;20216;-80
2022/11/23 01:00:17;;;;;;;93.17;38.90;;;0.70;99.90;;;;;;10040749;29;20202;-85
2022/11/23 01:05:38;;;;;;;87.57;34.63;;;0.70;99.90;;;;;;10041045;29;20213;-87
2022/11/23 01:11:01;;;;;;;91.53;36.80;;;0.70;99.90;;;;;;10040604;29;20263;-82
2022/11/23 01:16:33;;;;;;;89.17;36.67;;;0.60;99.90;;;;;;10057387;29;20289;-85
2022/11/23 01:21:54;;;;;;;82.83;37.37;;;0.70;99.90;;;;;;10053308;29;20213;-87
2022/11/23 01:27:17;;;;;;;86.83;37.30;;;0.60;99.90;;;;;;10053943;29;20279;-85
2022/11/23 01:32:38;;;;;;;90.30;35.47;;;0.60;99.90;;;;;;10081677;29;20207;-83
2022/11/23 01:38:00;;;;;;;86.83;37.43;;;0.60;99.90;;;;;;10080226;29;20210;-86
2022/11/23 01:43:21;;;;;;;87.60;36.77;;;0.70;99.90;;;;;;10033635;29;20208;-86
2022/11/23 01:48:56;;;;;;;82.37;35.73;;;0.70;99.90;;;;;;10033007;29;20245;-87
2022/11/23 01:54:31;;;;;;;89.03;38.00;;;0.70;99.90;;;;;;10045692;29;20445;-86
2022/11/23 01:59:53;;;;;;;86.67;36.30;;;0.60;99.90;;;;;;10020084;29;20561;-83
2022/11/23 02:05:18;;;;;;;94.47;38.53;;;0.70;99.90;;;;;;10045437;29;20499;-82
2022/11/23 02:10:39;;;;;;;86.13;36.40;;;0.60;99.90;;;;;;10045394;29;20237;-85
2022/11/23 02:16:03;;;;;;;96.83;40.43;;;0.60;99.90;;;;;;10058474;29;20415;-87
2022/11/23 02:21:24;;;;;;;101.47;40.03;;;0.70;99.90;;;;;;10057180;29;20204;-80
2022/11/23 02:26:45;;;;;;;94.53;40.93;;;0.60;99.90;;;;;;10069527;29;20218;-80
2022/11/23 02:32:07;;;;;;;92.30;36.63;;;0.60;99.90;;;;;;10088555;29;20280;-80
2022/11/23 02:37:28;;;;;;;87.83;36.20;;;0.60;99.90;;;;;;10085727;29;20218;-80
2022/11/23 02:42:49;;;;;;;93.13;38.10;;;0.60;99.90;;;;;;10018778;29;20210;-80
2022/11/23 02:48:27;;;;;;;98.93;39.30;;;0.60;99.90;;;;;;10030710;29;20473;-82
2022/11/23 02:53:48;;;;;;;96.63;38.33;;;0.60;99.90;;;;;;10030673;29;20276;-87
2022/11/23 02:59:10;;;;;;;96.10;37.97;;;0.60;99.90;;;;;;10044733;29;20198;-88
2022/11/23 03:04:31;;;;;;;93.77;37.63;;;0.60;99.90;;;;;;10030432;29;20219;-86
2022/11/23 03:09:52;;;;;;;90.83;36.07;;;0.50;99.90;;;;;;10043529;29;20457;-78
2022/11/23 03:15:13;;;;;;;80.37;34.50;;;0.50;99.90;;;;;;10050031;29;20212;-79
2022/11/23 03:20:35;;;;;;;89.57;35.53;;;0.60;99.90;;;;;;10054704;29;20282;-79
2022/11/23 03:25:58;;;;;;;101.60;38.03;;;0.50;99.90;;;;;;10080799;29;20224;-79
2022/11/23 03:31:26;;;;;;;94.13;36.87;;;0.50;99.90;;;;;;10081654;29;20258;-78
2022/11/23 03:36:47;;;;;;;93.73;36.57;;;0.50;99.90;;;;;;10099440;29;20248;-78
2022/11/23 03:42:08;;;;;;;103.97;38.83;;;0.40;99.90;;;;;;10067029;29;20255;-77
2022/11/23 03:47:29;;;;;;;94.77;37.17;;;0.40;99.90;;;;;;10066464;29;20292;-79
2022/11/23 03:52:51;;;;;;;92.83;38.57;;;0.40;99.90;;;;;;10066808;29;20283;-78
2022/11/23 03:58:13;;;;;;;94.13;35.47;;;0.50;99.90;;;;;;10066895;29;20228;-85
2022/11/23 04:03:35;;;;;;;96.87;38.87;;;0.50;99.90;;;;;;10066941;29;20217;-85
2022/11/23 04:09:04;;;;;;;90.27;37.10;;;0.60;99.90;;;;;;10066467;29;20310;-85
2022/11/23 04:15:00;;;;;;;86.27;35.70;;;0.50;99.90;;;;;;9997509;29;20278;-86
2022/11/23 04:20:22;;;;;;;88.27;37.23;;;0.60;99.90;;;;;;9985873;29;20246;-87
2022/11/23 04:25:45;;;;;;;89.23;34.90;;;0.50;99.90;;;;;;9988893;29;20367;-87
2022/11/23 04:31:07;;;;;;;84.87;36.37;;;0.50;99.90;;;;;;9971398;29;20313;-87
2022/11/23 04:36:39;;;;;;;89.93;36.20;;;0.60;99.90;;;;;;10022417;29;20221;-78
2022/11/23 04:42:02;;;;;;;88.03;38.20;;;0.60;99.90;;;;;;10017768;29;20215;-86
2022/11/23 04:47:24;;;;;;;84.07;36.27;;;0.70;99.90;;;;;;10035508;29;20516;-87
2022/11/23 04:52:47;;;;;;;80.13;33.73;;;0.60;99.90;;;;;;10065717;29;20283;-86
2022/11/23 04:58:13;;;;;;;78.63;34.93;;;0.50;99.90;;;;;;10070058;29;20532;-83
2022/11/23 05:03:34;;;;;;;80.77;34.37;;;0.50;99.90;;;;;;10108588;29;20262;-81
2022/11/23 05:08:58;;;;;;;74.70;30.70;;;0.50;99.90;;;;;;10086847;29;20281;-87
2022/11/23 05:14:34;;;;;;;84.80;34.50;;;0.50;99.90;;;;;;10085917;29;20503;-82
2022/11/23 05:19:56;;;;;;;83.20;34.67;;;0.60;99.90;;;;;;10059915;29;20557;-83
2022/11/23 05:25:20;;;;;;;95.23;34.73;;;0.50;99.90;;;;;;10076276;29;20235;-82
2022/11/23 05:30:56;;;;;;;80.17;33.87;;;0.50;99.90;;;;;;10084726;29;20236;-87
2022/11/23 05:36:19;;;;;;;98.23;36.23;;;0.50;99.90;;;;;;10093743;29;20284;-85
2022/11/23 05:41:40;;;;;;;78.73;32.63;;;0.50;99.90;;;;;;10034391;29;20199;-86
2022/11/23 05:47:15;;;;;;;83.03;32.07;;;0.50;99.90;;;;;;10033308;29;20571;-87
2022/11/23 05:52:36;;;;;;;79.80;33.17;;;0.50;99.90;;;;;;10033834;29;20253;-85
2022/11/23 05:57:57;;;;;;;80.03;32.57;;;0.40;99.90;;;;;;10033102;29;20507;-87
2022/11/23 06:03:19;;;;;;;76.97;31.73;;;0.30;99.90;;;;;;10033655;29;20220;-85
2022/11/23 06:08:40;;;;;;;76.70;32.67;;;0.40;99.90;;;;;;10031609;29;20236;-81
2022/11/23 06:14:03;;;;;;;88.57;37.63;;;0.40;99.90;;;;;;10044088;29;20209;-86
2022/11/23 06:19:25;;;;;;;90.63;35.80;;;0.50;99.90;;;;;;10071049;29;20232;-78
2022/11/23 06:24:47;;;;;;;90.17;40.17;;;0.60;99.90;;;;;;10083878;29;20254;-85
2022/11/23 06:30:29;;;;;;;100.10;41.93;;;0.60;99.90;;;;;;10078468;29;20237;-78
2022/11/23 06:35:58;;;;;;;91.67;42.83;;;0.70;99.90;;;;;;10108079;29;20502;-88
2022/11/23 06:41:25;;;;;;;91.53;38.70;;;0.70;99.90;;;;;;10031413;29;20284;-87
2022/11/23 06:46:49;;;;;;;90.00;38.97;;;0.60;99.90;;;;;;10030738;29;20319;-84
2022/11/23 06:52:10;;;;;;;98.33;46.20;;;0.60;99.90;;;;;;10030760;29;20449;-83
2022/11/23 06:57:32;;;;;;;96.53;40.73;;;0.60;99.90;;;;;;10043041;29;20552;-79
2022/11/23 07:02:54;;;;;;;95.67;40.30;;;0.50;99.90;;;;;;10031160;29;20356;-81
2022/11/23 07:08:16;;;;;;;98.00;41.73;;;0.50;99.90;;;;;;10043537;29;20224;-85
2022/11/23 07:13:38;;;;;;;89.07;37.53;;;0.50;99.90;;;;;;10038280;29;20219;-81
2022/11/23 07:19:00;;;;;;;109.63;46.03;;;0.60;99.90;;;;;;10036695;29;20245;-80
2022/11/23 07:24:21;;;;;;;101.47;39.50;;;0.70;99.90;;;;;;10047019;29;20195;-87
2022/11/23 07:29:42;;;;;;;100.50;41.67;;;0.70;99.90;;;;;;10044451;29;20550;-87
2022/11/23 07:35:04;;;;;;;82.90;34.93;;;0.80;99.90;;;;;;10016884;29;20252;-87
2022/11/23 07:40:29;;;;;;;72.87;32.97;;;0.80;99.90;;;;;;10050291;29;20293;-84
2022/11/23 07:45:51;;;;;;;83.37;34.07;;;0.80;99.90;;;;;;10054316;29;20554;-82
2022/11/23 07:51:12;;;;;;;81.07;32.50;;;0.80;99.90;;;;;;10054045;29;20247;-80
2022/11/23 07:56:33;;;;;;;83.17;33.07;;;0.80;99.90;;;;;;10054025;29;20386;-80
2022/11/23 08:01:54;;;;;;;101.50;45.13;;;0.80;99.90;;;;;;10080150;29;20258;-80
2022/11/23 08:07:17;;;;;;;87.43;36.77;;;0.80;99.90;;;;;;10079575;29;20198;-89
2022/11/23 08:12:39;;;;;;;91.10;37.27;;;0.80;99.90;;;;;;10066377;29;20259;-88
2022/11/23 08:18:03;;;;;;;90.13;37.17;;;0.80;99.90;;;;;;10067745;29;20263;-87
2022/11/23 08:23:24;;;;;;;84.17;33.93;;;0.80;99.90;;;;;;10060074;29;20269;-80
2022/11/23 08:28:45;;;;;;;89.10;33.93;;;0.70;99.90;;;;;;10057993;29;20248;-86
2022/11/23 08:34:07;;;;;;;105.07;38.67;;;0.70;99.90;;;;;;10095845;29;20285;-85
2022/11/23 08:39:28;;;;;;;105.83;42.43;;;0.70;99.90;;;;;;10108436;29;20199;-85
2022/11/23 08:44:49;;;;;;;88.07;36.57;;;0.90;99.90;;;;;;10106301;29;20216;-81
2022/11/23 08:50:11;;;;;;;89.07;35.23;;;0.90;99.90;;;;;;10069242;29;20236;-81
2022/11/23 08:55:32;;;;;;;92.73;34.87;;;1.00;99.90;;;;;;10067930;29;20239;-82
2022/11/23 09:00:53;;;;;;;85.53;33.50;;;0.90;99.90;;;;;;10054898;29;20231;-85
2022/11/23 09:06:14;;;;;;;80.23;31.73;;;0.90;99.90;;;;;;10084488;29;20640;-86
2022/11/23 09:11:36;;;;;;;77.97;32.37;;;0.90;99.90;;;;;;10065085;29;20228;-82
2022/11/23 09:16:59;;;;;;;77.77;33.47;;;0.90;99.90;;;;;;10075219;29;20325;-87
2022/11/23 09:22:20;;;;;;;91.77;37.00;;;1.00;99.90;;;;;;10063144;29;20208;-84
2022/11/23 09:27:41;;;;;;;81.83;32.77;;;1.00;99.90;;;;;;10069030;29;20206;-84
2022/11/23 09:33:02;;;;;;;90.07;36.37;;;1.10;99.90;;;;;;10063702;29;20388;-82
2022/11/23 09:38:24;;;;;;;88.10;33.17;;;1.10;99.90;;;;;;10074619;29;20214;-84
2022/11/23 09:44:17;;;;;;;85.43;30.87;;;1.00;99.90;;;;;;10076303;29;20242;-79
2022/11/23 09:50:23;;;;;;;87.60;32.57;;;1.00;99.90;;;;;;10078201;29;20246;-83
2022/11/23 09:55:47;;;;;;;79.03;31.03;;;1.10;99.90;;;;;;10016738;29;20217;-82
2022/11/23 10:01:14;;;;;;;89.23;33.77;;;1.00;99.90;;;;;;9993803;29;20200;-81
2022/11/23 10:06:42;;;;;;;82.00;33.40;;;1.00;99.90;;;;;;10015535;29;20233;-86
2022/11/23 10:12:19;;;;;;;108.50;48.63;;;1.10;99.90;;;;;;10013498;29;20553;-81
2022/11/23 10:17:44;;;;;;;115.20;49.83;;;1.20;99.90;;;;;;10009650;29;20466;-86
2022/11/23 10:23:33;;;;;;;94.30;37.77;;;1.20;99.90;;;;;;10028846;29;20226;-87
2022/11/23 10:28:56;;;;;;;84.87;36.73;;;1.20;99.90;;;;;;10045299;29;20258;-88
2022/11/23 10:34:25;;;;;;;86.10;37.13;;;1.30;99.90;;;;;;10096759;29;20219;-85
2022/11/23 10:39:46;;;;;;;94.43;38.33;;;1.20;99.90;;;;;;10084279;29;20218;-87
2022/11/23 10:45:19;;;;;;;100.77;39.93;;;1.30;99.90;;;;;;10069108;29;20209;-81
2022/11/23 10:50:41;;;;;;;86.53;36.60;;;1.30;99.90;;;;;;10039476;29;20314;-89
2022/11/23 10:56:02;;;;;;;80.77;34.53;;;1.30;99.90;;;;;;10057213;29;20213;-86
2022/11/23 11:01:26;;;;;;;74.70;30.53;;;1.30;99.90;;;;;;10078037;29;20223;-81
2022/11/23 11:06:47;;;;;;;70.27;29.73;;;1.40;99.90;;;;;;10043362;29;20316;-85
2022/11/23 11:12:18;;;;;;;78.87;33.17;;;1.50;94.90;;;;;;10029283;29;20318;-84
2022/11/23 11:17:40;;;;;;;83.13;33.83;;;1.40;59.90;;;;;;10051672;29;20610;-81
2022/11/23 11:23:14;;;;;;;75.37;30.30;;;1.40;99.90;;;;;;10064315;29;20216;-79
2022/11/23 11:28:40;;;;;;;78.87;31.00;;;1.30;97.00;;;;;;10066942;29;20755;-80
2022/11/23 11:34:05;;;;;;;68.43;28.30;;;1.30;94.80;;;;;;10057959;29;20571;-81
2022/11/23 11:39:34;;;;;;;76.53;31.90;;;1.30;93.20;;;;;;10087453;29;20213;-84
2022/11/23 11:44:57;;;;;;;72.03;30.27;;;1.30;99.90;;;;;;10060664;29;20339;-80
2022/11/23 11:50:25;;;;;;;64.07;28.53;;;1.30;99.90;;;;;;10074045;29;20269;-80
2022/11/23 11:56:29;;;;;;;67.17;27.13;;;1.20;99.90;;;;;;10051612;29;20527;-81
2022/11/23 12:01:59;;;;;;;68.07;29.23;;;1.20;99.90;;;;;;10075347;29;20202;-84
2022/11/23 12:07:33;;;;;;;60.63;24.87;;;1.30;99.90;;;;;;10063629;29;20215;-83
2022/11/23 12:12:55;;;;;;;73.30;30.53;;;1.30;99.90;;;;;;10061142;29;20233;-89
2022/11/23 12:18:31;;;;;;;70.87;31.37;;;1.20;99.90;;;;;;10069388;29;20556;-86
2022/11/23 12:24:14;;;;;;;62.17;27.47;;;1.20;99.90;;;;;;10072370;29;20548;-85
2022/11/23 12:29:47;;;;;;;58.53;26.87;;;1.30;99.90;;;;;;10053877;29;20533;-81
2022/11/23 12:35:33;;;;;;;58.23;25.43;;;1.40;99.90;;;;;;10030681;29;20287;-85
2022/11/23 12:41:03;;;;;;;57.43;24.10;;;1.30;99.90;;;;;;10048568;29;20432;-87
2022/11/23 12:46:55;;;;;;;59.07;25.30;;;1.20;99.90;;;;;;10049057;29;20206;-84
2022/11/23 12:52:45;;;;;;;63.40;30.93;;;1.20;99.90;;;;;;10040507;29;20239;-83
2022/11/23 12:58:17;;;;;;;51.70;23.80;;;1.20;99.90;;;;;;10040681;29;20388;-82
2022/11/23 13:03:47;;;;;;;53.10;24.00;;;1.10;99.90;;;;;;10050276;29;20204;-83
2022/11/23 13:09:46;;;;;;;61.57;25.47;;;1.10;99.90;;;;;;10047674;29;20256;-87
2022/11/23 13:15:28;;;;;;;57.50;23.70;;;1.10;99.90;;;;;;10056584;29;20331;-81
2022/11/23 13:21:01;;;;;;;59.67;24.10;;;1.10;99.90;;;;;;10069821;29;20252;-83
2022/11/23 13:26:27;;;;;;;55.67;24.63;;;1.10;99.90;;;;;;10068794;29;20300;-84
2022/11/23 13:32:08;;;;;;;58.37;25.27;;;1.10;99.90;;;;;;10047095;29;20249;-87
2022/11/23 13:37:29;;;;;;;59.27;24.53;;;1.10;99.90;;;;;;10050345;29;20207;-83
2022/11/23 13:42:53;;;;;;;60.83;25.87;;;1.10;99.90;;;;;;10082280;29;20229;-88
2022/11/23 13:48:17;;;;;;;84.57;39.87;;;1.10;99.90;;;;;;10066294;29;20234;-87
2022/11/23 13:54:22;;;;;;;64.83;27.50;;;1.20;99.90;;;;;;10066661;29;20206;-82
2022/11/23 13:59:43;;;;;;;81.50;37.80;;;1.40;99.90;;;;;;10078186;29;20463;-86
2022/11/23 14:05:50;;;;;;;78.40;30.40;;;1.40;99.90;;;;;;10075056;29;20250;-81
2022/11/23 14:11:20;;;;;;;88.70;30.67;;;1.30;99.90;;;;;;10046750;29;20424;-87
2022/11/23 14:16:56;;;;;;;95.40;32.10;;;1.30;99.90;;;;;;10114394;29;20243;-86
2022/11/23 14:22:30;;;;;;;81.57;36.73;;;1.30;99.90;;;;;;10081223;29;20240;-82
2022/11/23 14:28:17;;;;;;;102.93;36.80;;;1.30;99.90;;;;;;10061059;29;20450;-80
2022/11/23 14:33:59;;;;;;;130.47;56.20;;;1.30;99.90;;;;;;10060501;29;20540;-87
2022/11/23 14:39:58;;;;;;;129.00;53.90;;;1.20;99.90;;;;;;10086669;29;20216;-87
2022/11/23 14:45:22;;;;;;;105.50;51.10;;;1.30;99.90;;;;;;10067691;29;20523;-81
2022/11/23 14:50:52;;;;;;;85.93;40.40;;;1.30;99.90;;;;;;10070914;29;20253;-81
2022/11/23 14:56:43;;;;;;;67.90;29.90;;;1.30;99.90;;;;;;10040425;29;20221;-82
2022/11/23 15:02:18;;;;;;;75.07;34.73;;;1.30;99.90;;;;;;10040760;29;20255;-89
2022/11/23 15:08:08;;;;;;;77.37;34.07;;;1.20;99.90;;;;;;10065539;29;20223;-84
2022/11/23 15:13:43;;;;;;;65.87;28.70;;;1.20;99.90;;;;;;10044106;29;20311;-88
2022/11/23 15:19:27;;;;;;;78.07;36.27;;;1.20;99.90;;;;;;10095786;29;20263;-90
2022/11/23 15:24:50;;;;;;;58.83;24.37;;;1.20;99.90;;;;;;10073376;29;20259;-83
2022/11/23 15:30:25;;;;;;;89.50;48.67;;;1.20;99.90;;;;;;10069372;29;20219;-81
2022/11/23 15:35:49;;;;;;;62.67;34.53;;;1.20;99.90;;;;;;10092796;29;20208;-83
2022/11/23 15:41:10;;;;;;;619.70;322.77;;;1.20;99.90;;;;;;10049713;29;20259;-80
2022/11/23 15:46:37;;;;;;;1052.90;547.87;;;1.20;99.90;;;;;;10061946;29;20511;-81
2022/11/23 15:52:00;;;;;;;961.97;539.17;;;1.30;99.90;;;;;;10058178;29;20402;-81
2022/11/23 15:57:24;;;;;;;785.67;490.33;;;1.30;99.90;;;;;;10061475;29;20396;-87
2022/11/23 16:02:44;;;;;;;346.37;222.40;;;1.30;99.90;;;;;;10081946;29;20207;-80
2022/11/23 16:08:23;;;;;;;191.73;136.43;;;1.30;99.90;;;;;;10083218;29;20198;-85
2022/11/23 16:13:45;;;;;;;71.30;37.93;;;1.20;99.90;;;;;;10065102;29;20241;-86
2022/11/23 16:19:29;;;;;;;61.87;31.27;;;1.20;99.90;;;;;;10055600;29;20288;-82
2022/11/23 16:24:54;;;;;;;78.70;36.33;;;1.10;99.90;;;;;;10048990;29;20244;-80
2022/11/23 16:30:27;;;;;;;75.10;36.70;;;1.20;99.90;;;;;;10058491;29;20303;-83
2022/11/23 16:35:49;;;;;;;76.03;30.63;;;1.20;99.90;;;;;;10079763;29;20191;-79
2022/11/23 16:41:10;;;;;;;52.37;25.17;;;1.30;99.90;;;;;;10065567;29;20280;-82
2022/11/23 16:46:32;;;;;;;65.33;26.97;;;1.20;99.90;;;;;;10079609;29;20199;-79
2022/11/23 16:51:53;;;;;;;64.07;27.90;;;1.30;99.90;;;;;;10065609;29;20230;-88
2022/11/23 16:57:27;;;;;;;107.47;64.83;;;1.30;99.90;;;;;;10073198;29;20206;-85
2022/11/23 17:02:49;;;;;;;61.70;27.20;;;1.30;99.90;;;;;;10073037;29;20285;-84
2022/11/23 17:08:10;;;;;;;70.80;27.67;;;1.30;99.90;;;;;;10085870;29;20284;-78
2022/11/23 17:13:32;;;;;;;74.00;30.27;;;1.20;99.90;;;;;;10059821;29;20423;-78
2022/11/23 17:18:53;;;;;;;81.63;33.40;;;1.30;99.90;;;;;;10086103;29;20263;-80
2022/11/23 17:24:14;;;;;;;85.77;37.40;;;1.30;99.90;;;;;;10059848;29;20219;-86
2022/11/23 17:29:35;;;;;;;64.53;25.83;;;1.30;99.90;;;;;;10072127;29;20285;-81
2022/11/23 17:35:00;;;;;;;56.17;26.30;;;1.30;99.90;;;;;;10060655;29;20202;-82
2022/11/23 17:40:23;;;;;;;50.53;22.73;;;1.30;99.90;;;;;;10046821;29;20214;-78
2022/11/23 17:45:44;;;;;;;56.63;27.67;;;1.20;99.90;;;;;;10047369;29;20219;-89
2022/11/23 17:51:05;;;;;;;69.57;29.43;;;1.20;99.90;;;;;;10061701;29;20223;-84
2022/11/23 17:56:33;;;;;;;67.40;28.70;;;1.20;99.90;;;;;;10063202;29;20212;-81
2022/11/23 18:01:54;;;;;;;65.67;28.97;;;1.30;99.90;;;;;;10054516;29;20230;-82
2022/11/23 18:07:15;;;;;;;76.57;33.13;;;1.20;99.90;;;;;;10077298;29;20191;-80
2022/11/23 18:12:38;;;;;;;69.13;29.73;;;1.20;99.90;;;;;;10066048;29;20479;-88
2022/11/23 18:17:59;;;;;;;58.63;27.27;;;1.20;99.90;;;;;;10071685;29;20290;-88
2022/11/23 18:23:24;;;;;;;67.17;29.77;;;1.20;99.90;;;;;;10070642;29;20575;-86
2022/11/23 18:28:46;;;;;;;52.50;24.37;;;1.20;99.90;;;;;;10085075;29;20204;-83
2022/11/23 18:34:07;;;;;;;56.93;27.70;;;1.10;99.90;;;;;;10116471;29;20522;-88
2022/11/23 18:39:29;;;;;;;61.00;26.53;;;1.10;99.90;;;;;;10108513;29;20210;-89
2022/11/23 18:44:49;;;;;;;50.67;24.30;;;1.20;99.90;;;;;;10108644;29;20196;-78
2022/11/23 18:50:11;;;;;;;56.73;29.03;;;1.20;99.90;;;;;;10107399;29;20240;-80
2022/11/23 18:55:33;;;;;;;65.90;28.83;;;1.10;97.40;;;;;;10120508;29;20226;-79
2022/11/23 19:00:55;;;;;;;67.60;27.50;;;1.10;99.90;;;;;;10106899;29;20401;-78
2022/11/23 19:06:17;;;;;;;61.00;27.07;;;1.10;99.90;;;;;;10107816;29;20228;-90
2022/11/23 19:11:39;;;;;;;71.17;29.63;;;1.10;99.90;;;;;;10107020;29;20237;-88
2022/11/23 19:17:00;;;;;;;68.83;32.03;;;1.10;99.90;;;;;;10072062;29;20241;-85
2022/11/23 19:22:21;;;;;;;64.53;28.33;;;1.10;99.90;;;;;;10081071;29;20223;-81
2022/11/23 19:27:43;;;;;;;57.97;26.13;;;1.00;99.90;;;;;;10069997;29;20430;-80
2022/11/23 19:33:04;;;;;;;53.10;24.83;;;0.90;99.90;;;;;;10080933;29;20591;-84
2022/11/23 19:38:25;;;;;;;58.13;24.50;;;1.00;99.90;;;;;;10093037;29;20208;-80
2022/11/23 19:43:54;;;;;;;63.97;27.37;;;0.90;99.90;;;;;;10109923;29;20211;-89
2022/11/23 19:49:15;;;;;;;59.03;26.30;;;1.00;99.90;;;;;;10106694;29;20228;-87
2022/11/23 19:54:36;;;;;;;54.77;26.27;;;1.00;99.90;;;;;;10105858;29;20201;-82
2022/11/23 19:59:57;;;;;;;61.20;28.23;;;0.90;99.90;;;;;;10105077;29;20524;-87
2022/11/23 20:05:20;;;;;;;65.23;28.47;;;0.90;99.90;;;;;;10105299;29;20284;-79
2022/11/23 20:10:41;;;;;;;60.70;28.23;;;0.80;99.90;;;;;;10104784;29;20574;-80
2022/11/23 20:16:04;;;;;;;56.10;26.77;;;0.80;99.90;;;;;;10077981;29;20522;-85
2022/11/23 20:21:26;;;;;;;52.37;23.77;;;0.80;99.90;;;;;;10066469;29;20202;-84
2022/11/23 20:26:48;;;;;;;71.27;32.47;;;0.90;99.90;;;;;;10065613;29;20232;-88
2022/11/23 20:32:11;;;;;;;70.10;30.37;;;0.90;99.90;;;;;;10097703;29;20227;-85
2022/11/23 20:37:32;;;;;;;54.27;25.97;;;1.00;99.90;;;;;;10117877;29;20227;-79
2022/11/23 20:42:58;;;;;;;56.57;27.07;;;1.00;99.90;;;;;;10104273;29;20239;-88
2022/11/23 20:48:19;;;;;;;50.80;25.73;;;0.80;99.90;;;;;;10104168;29;20231;-79
2022/11/23 20:53:41;;;;;;;60.27;28.40;;;0.80;99.90;;;;;;10117409;29;20454;-86
2022/11/23 20:59:03;;;;;;;68.53;33.67;;;0.80;99.90;;;;;;10104023;29;20206;-86
2022/11/23 21:04:24;;;;;;;66.33;31.13;;;0.70;99.90;;;;;;10103982;29;20218;-83
2022/11/23 21:09:45;;;;;;;69.17;32.57;;;0.70;99.90;;;;;;10116970;29;20313;-82
2022/11/23 21:15:07;;;;;;;68.13;32.23;;;0.60;99.90;;;;;;10084530;29;20287;-80
2022/11/23 21:20:28;;;;;;;61.43;29.03;;;0.60;99.90;;;;;;10052197;29;20248;-78
2022/11/23 21:25:52;;;;;;;61.17;26.40;;;0.60;99.90;;;;;;10066489;29;20213;-85
2022/11/23 21:31:16;;;;;;;59.37;27.80;;;0.60;99.90;;;;;;10089851;29;20534;-83
2022/11/23 21:36:38;;;;;;;66.53;28.20;;;0.70;99.90;;;;;;10104432;29;20224;-90
2022/11/23 21:41:59;;;;;;;68.07;30.97;;;0.70;99.90;;;;;;10095875;29;20210;-86
2022/11/23 21:47:20;;;;;;;57.17;26.30;;;0.60;99.90;;;;;;10123490;29;20196;-85
2022/11/23 21:52:41;;;;;;;67.53;27.30;;;0.50;99.90;;;;;;10097093;29;20471;-79
2022/11/23 21:58:02;;;;;;;58.10;25.60;;;0.40;99.90;;;;;;10123986;29;20380;-83
2022/11/23 22:03:23;;;;;;;51.97;24.00;;;0.40;99.90;;;;;;10124170;29;20269;-77
2022/11/23 22:09:03;;;;;;;56.23;24.07;;;0.30;99.90;;;;;;10123409;29;20186;-82
2022/11/23 22:14:25;;;;;;;59.87;26.17;;;0.30;99.90;;;;;;10083008;29;20244;-87
2022/11/23 22:19:46;;;;;;;62.30;27.37;;;0.30;99.90;;;;;;10084113;29;20260;-79
2022/11/23 22:25:08;;;;;;;78.53;35.03;;;0.40;99.90;;;;;;10072905;29;20215;-83
2022/11/23 22:30:29;;;;;;;73.43;29.77;;;0.40;99.90;;;;;;10077245;29;20228;-84
2022/11/23 22:35:50;;;;;;;70.90;28.33;;;0.50;99.90;;;;;;10109269;29;20211;-84
2022/11/23 22:41:14;;;;;;;70.23;27.37;;;0.50;99.90;;;;;;10122409;29;20220;-80
2022/11/23 22:46:37;;;;;;;63.00;27.73;;;0.40;99.90;;;;;;10098034;29;20209;-78
2022/11/23 22:51:58;;;;;;;68.13;28.57;;;0.40;99.90;;;;;;10135496;29;20215;-80
2022/11/23 22:57:20;;;;;;;69.20;27.27;;;0.40;99.90;;;;;;10124592;29;20226;-78
2022/11/23 23:02:41;;;;;;;60.50;26.20;;;0.40;99.90;;;;;;10107185;29;20208;-79
2022/11/23 23:08:02;;;;;;;58.97;26.30;;;0.40;99.90;;;;;;10107364;29;20208;-88
2022/11/23 23:13:24;;;;;;;60.37;25.60;;;0.40;99.90;;;;;;10100646;29;20229;-83
2022/11/23 23:18:45;;;;;;;67.47;27.40;;;0.30;99.90;;;;;;10055630;29;20420;-83
2022/11/23 23:24:08;;;;;;;65.37;26.20;;;0.30;99.90;;;;;;10068743;29;20199;-79
2022/11/23 23:29:29;;;;;;;62.90;27.40;;;0.30;99.90;;;;;;10081413;29;20499;-79
2022/11/23 23:34:51;;;;;;;67.30;28.67;;;0.40;99.90;;;;;;10044629;29;20303;-82
2022/11/23 23:40:12;;;;;;;75.37;35.73;;;0.40;99.90;;;;;;10042057;29;20258;-79
2022/11/23 23:45:33;;;;;;;79.33;32.23;;;0.40;99.90;;;;;;10042502;29;20244;-79
2022/11/23 23:50:55;;;;;;;70.20;29.30;;;0.50;99.90;;;;;;10044176;29;20539;-78
2022/11/23 23:56:26;;;;;;;66.40;27.40;;;0.50;99.90;;;;;;10048418;29;20249;-83
